Time;durP1;ratioP1;P1;durP2;ratioP2;P2;SDS_P1;SDS_P2;PMS_P1;PMS_P2;Temp;Humidity;BMP_temperature;BMP_pressure;BME280_temperature;BME280_humidity;BME280_pressure;Samples;Min_cycle;Max_cycle;Signal;HPM_P1;HPM_P2
2022/07/10 00:00:43;;;;;;;;;;;;;;;24.19;38.09;99194.81;4376585;32;33730;-87
2022/07/10 00:03:10;;;;;;;;;;;;;;;24.02;38.42;99197.31;4362767;32;31404;-87
2022/07/10 00:05:38;;;;;;;;;;;;;;;24.12;38.32;99196.00;4376591;32;34084;-87
2022/07/10 00:08:05;;;;;;;;;;;;;;;23.72;39.25;99192.34;4361508;32;32629;-84
2022/07/10 00:10:33;;;;;;;;;;;;;;;22.81;41.52;99189.62;4350369;32;34718;-87
2022/07/10 00:13:00;;;;;;;;;;;;;;;23.48;40.41;99186.22;4376157;32;33721;-88
2022/07/10 00:15:27;;;;;;;;;;;;;;;24.06;39.34;99190.97;4376132;32;33736;-88
2022/07/10 00:17:55;;;;;;;;;;;;;;;23.39;40.53;99185.72;4376128;32;34503;-85
2022/07/10 00:20:22;;;;;;;;;;;;;;;23.21;41.14;99182.00;4376129;32;34953;-88
2022/07/10 00:22:49;;;;;;;;;;;;;;;24.00;39.41;99184.13;4375823;32;34084;-86
2022/07/10 00:25:17;;;;;;;;;;;;;;;22.71;42.43;99196.16;4376130;32;33654;-87
2022/07/10 00:27:44;;;;;;;;;;;;;;;23.10;41.76;99187.69;4376028;32;34190;-88
2022/07/10 00:30:11;;;;;;;;;;;;;;;22.99;42.24;99197.81;4376142;32;33828;-88
2022/07/10 00:32:39;;;;;;;;;;;;;;;22.57;42.95;99195.78;4375801;32;34186;-88
2022/07/10 00:35:06;;;;;;;;;;;;;;;22.18;44.19;99188.34;4362759;32;34504;-86
2022/07/10 00:37:36;;;;;;;;;;;;;;;23.25;42.06;99188.91;4363028;32;35292;-86
2022/07/10 00:40:04;;;;;;;;;;;;;;;23.00;42.75;99183.69;4362521;32;34250;-88
2022/07/10 00:42:31;;;;;;;;;;;;;;;22.47;43.83;99195.28;4376133;32;33545;-85
2022/07/10 00:44:59;;;;;;;;;;;;;;;23.72;41.17;99180.91;4376019;32;34153;-88
2022/07/10 00:47:26;;;;;;;;;;;;;;;22.91;42.95;99184.00;4362436;32;34179;-88
2022/07/10 00:49:53;;;;;;;;;;;;;;;23.14;42.53;99189.31;4375809;32;35087;-88
2022/07/10 00:52:21;;;;;;;;;;;;;;;22.94;43.08;99189.19;4375790;32;34148;-87
2022/07/10 00:54:51;;;;;;;;;;;;;;;22.40;44.75;99192.91;4375577;32;34326;-87
2022/07/10 00:57:19;;;;;;;;;;;;;;;22.47;44.82;99189.12;4362285;32;33970;-87
2022/07/10 00:59:46;;;;;;;;;;;;;;;22.38;45.08;99184.16;4362120;32;35057;-87
2022/07/10 01:02:14;;;;;;;;;;;;;;;22.85;44.03;99182.44;4361832;32;33634;-87
2022/07/10 01:04:41;;;;;;;;;;;;;;;23.05;43.51;99184.38;4375354;32;34447;-87
2022/07/10 01:07:09;;;;;;;;;;;;;;;22.81;43.94;99179.06;4362168;32;33703;-87
2022/07/10 01:09:36;;;;;;;;;;;;;;;23.44;42.63;99167.88;4375865;32;34141;-86
2022/07/10 01:12:04;;;;;;;;;;;;;;;22.83;44.25;99182.50;4375294;32;33663;-88
2022/07/10 01:14:31;;;;;;;;;;;;;;;22.57;44.87;99180.78;4362123;32;34128;-87
2022/07/10 01:16:58;;;;;;;;;;;;;;;23.40;43.06;99176.84;4375209;32;35211;-87
2022/07/10 01:19:26;;;;;;;;;;;;;;;23.59;42.36;99177.84;4376606;32;34791;-87
2022/07/10 01:21:53;;;;;;;;;;;;;;;22.80;44.44;99182.59;4363601;32;33001;-87
2022/07/10 01:24:21;;;;;;;;;;;;;;;23.18;43.42;99182.97;4377492;32;35030;-88
2022/07/10 01:26:48;;;;;;;;;;;;;;;23.11;43.29;99181.50;4377331;32;34081;-87
2022/07/10 01:29:15;;;;;;;;;;;;;;;23.14;43.29;99178.72;4377665;32;33818;-85
2022/07/10 01:31:43;;;;;;;;;;;;;;;22.76;44.28;99177.50;4377388;32;33826;-86
2022/07/10 01:34:10;;;;;;;;;;;;;;;22.49;44.73;99182.00;4377364;32;34005;-88
2022/07/10 01:36:38;;;;;;;;;;;;;;;22.93;43.99;99185.69;4377408;32;34134;-88
2022/07/10 01:39:06;;;;;;;;;;;;;;;22.55;44.65;99174.72;4364047;32;34191;-88
2022/07/10 01:41:33;;;;;;;;;;;;;;;22.80;44.09;99182.59;4377199;32;33197;-87
2022/07/10 01:44:00;;;;;;;;;;;;;;;23.32;42.77;99174.50;4377223;32;35053;-87
2022/07/10 01:46:28;;;;;;;;;;;;;;;22.10;45.78;99163.97;4377293;32;34016;-87
2022/07/10 01:48:55;;;;;;;;;;;;;;;23.15;43.09;99167.25;4377029;32;34169;-87
2022/07/10 01:51:23;;;;;;;;;;;;;;;22.59;44.37;99167.53;4376974;32;33335;-87
2022/07/10 01:53:50;;;;;;;;;;;;;;;21.74;46.42;99161.63;4377083;32;34041;-85
2022/07/10 01:56:17;;;;;;;;;;;;;;;21.42;47.29;99159.16;4376896;32;34162;-86
2022/07/10 01:58:45;;;;;;;;;;;;;;;21.91;46.08;99152.28;4363302;32;34880;-87
2022/07/10 02:01:12;;;;;;;;;;;;;;;21.91;45.91;99147.87;4376746;32;33399;-87
2022/07/10 02:06:26;;;;;;;;;;;;;;;22.38;44.95;99147.16;4377181;32;35050;-87
2022/07/10 02:08:53;;;;;;;;;;;;;;;22.36;45.04;99152.53;4376887;32;34017;-85
2022/07/10 02:11:20;;;;;;;;;;;;;;;22.70;44.19;99153.94;4376809;32;32820;-86
2022/07/10 02:13:48;;;;;;;;;;;;;;;23.25;42.82;99141.28;4376905;32;34715;-87
2022/07/10 02:16:15;;;;;;;;;;;;;;;23.19;42.73;99154.78;4377067;32;34554;-87
2022/07/10 02:18:42;;;;;;;;;;;;;;;22.93;43.45;99145.19;4377120;32;35105;-86
2022/07/10 02:21:11;;;;;;;;;;;;;;;22.90;43.56;99153.19;4376920;32;33620;-87
2022/07/10 02:23:40;;;;;;;;;;;;;;;23.84;41.53;99145.13;4363621;32;33560;-87
2022/07/10 02:26:08;;;;;;;;;;;;;;;23.45;42.29;99145.78;4363548;32;35000;-87
2022/07/10 02:28:35;;;;;;;;;;;;;;;22.93;43.52;99146.06;4376726;32;34285;-87
2022/07/10 02:31:03;;;;;;;;;;;;;;;23.87;41.41;99139.72;4376229;32;34436;-86
2022/07/10 02:33:31;;;;;;;;;;;;;;;21.77;46.44;99156.25;4376723;32;33997;-85
2022/07/10 02:35:58;;;;;;;;;;;;;;;22.72;44.19;99145.03;4377067;32;33902;-87
2022/07/10 02:38:25;;;;;;;;;;;;;;;22.33;45.28;99142.06;4362854;32;34372;-86
2022/07/10 02:40:53;;;;;;;;;;;;;;;22.11;45.82;99136.62;4376886;32;34213;-86
2022/07/10 02:43:20;;;;;;;;;;;;;;;21.43;47.69;99134.50;4376751;32;34204;-87
2022/07/10 02:45:48;;;;;;;;;;;;;;;22.33;45.46;99144.69;4363354;32;34105;-87
2022/07/10 02:48:15;;;;;;;;;;;;;;;22.40;45.12;99137.44;4376512;32;34872;-87
2022/07/10 02:50:43;;;;;;;;;;;;;;;22.37;45.16;99130.47;4361655;32;33545;-86
2022/07/10 02:53:11;;;;;;;;;;;;;;;22.43;45.01;99124.13;4360253;32;32647;-87
2022/07/10 02:55:38;;;;;;;;;;;;;;;21.10;48.57;99137.25;4348143;32;33842;-86
2022/07/10 02:58:05;;;;;;;;;;;;;;;20.92;49.12;99143.09;4360479;32;33531;-86
2022/07/10 03:00:33;;;;;;;;;;;;;;;22.13;46.14;99137.44;4362912;32;34149;-87
2022/07/10 03:03:00;;;;;;;;;;;;;;;21.60;47.59;99137.47;4363049;32;33196;-87
2022/07/10 03:05:28;;;;;;;;;;;;;;;22.11;46.02;99134.84;4376861;32;34739;-87
2022/07/10 03:07:55;;;;;;;;;;;;;;;22.08;46.18;99132.31;4363196;32;34319;-88
2022/07/10 03:10:23;;;;;;;;;;;;;;;22.19;45.87;99137.25;4376580;32;33295;-88
2022/07/10 03:12:50;;;;;;;;;;;;;;;21.96;46.35;99132.75;4376675;32;34533;-89
2022/07/10 03:15:17;;;;;;;;;;;;;;;22.06;46.30;99128.88;4376487;32;35409;-89
2022/07/10 03:17:45;;;;;;;;;;;;;;;22.53;45.22;99133.41;4376439;32;33867;-88
2022/07/10 03:20:12;;;;;;;;;;;;;;;22.21;45.85;99135.44;4363435;32;33163;-89
2022/07/10 03:22:40;;;;;;;;;;;;;;;22.50;45.26;99120.31;4351092;32;33637;-88
2022/07/10 03:25:07;;;;;;;;;;;;;;;21.98;46.23;99130.06;4363095;32;34154;-87
2022/07/10 03:27:34;;;;;;;;;;;;;;;22.49;45.42;99127.38;4376195;32;35285;-87
2022/07/10 03:30:03;;;;;;;;;;;;;;;21.76;47.20;99120.22;4376516;32;34351;-86
2022/07/10 03:32:30;;;;;;;;;;;;;;;20.85;49.49;99113.41;4362952;32;35002;-86
2022/07/10 03:34:57;;;;;;;;;;;;;;;21.53;47.98;99122.75;4376450;32;34493;-87
2022/07/10 03:37:25;;;;;;;;;;;;;;;21.43;48.46;99113.41;4375898;32;34593;-87
2022/07/10 03:39:52;;;;;;;;;;;;;;;21.91;47.08;99110.06;4376316;32;33507;-87
2022/07/10 03:42:19;;;;;;;;;;;;;;;21.82;47.23;99101.56;4376376;32;34379;-86
2022/07/10 03:44:47;;;;;;;;;;;;;;;22.40;45.84;99113.66;4376385;32;34407;-87
2022/07/10 03:47:14;;;;;;;;;;;;;;;22.06;46.31;99109.53;4362455;32;35076;-87
2022/07/10 03:49:41;;;;;;;;;;;;;;;22.44;45.50;99102.06;4376781;32;33583;-88
2022/07/10 03:52:09;;;;;;;;;;;;;;;22.20;46.41;99096.75;4376075;32;33684;-87
2022/07/10 03:54:36;;;;;;;;;;;;;;;22.15;46.66;99106.59;4376291;32;34498;-87
2022/07/10 03:59:49;;;;;;;;;;;;;;;23.33;43.86;99103.94;4376578;32;33501;-86
2022/07/10 04:02:16;;;;;;;;;;;;;;;23.61;43.18;99096.63;4376732;32;34105;-87
2022/07/10 04:04:44;;;;;;;;;;;;;;;22.51;45.67;99101.78;4376307;32;35205;-87
2022/07/10 04:07:12;;;;;;;;;;;;;;;23.81;42.78;99097.59;4376102;32;35020;-89
2022/07/10 04:09:39;;;;;;;;;;;;;;;23.55;43.32;99094.22;4362286;32;33825;-87
2022/07/10 04:12:07;;;;;;;;;;;;;;;23.64;43.11;99077.97;4376003;32;33893;-87
2022/07/10 04:14:34;;;;;;;;;;;;;;;22.86;44.89;99096.09;4362857;32;34649;-87
2022/07/10 04:17:02;;;;;;;;;;;;;;;22.41;46.14;99095.09;4375191;32;34481;-86
2022/07/10 04:19:29;;;;;;;;;;;;;;;22.73;45.37;99090.38;4375604;32;33780;-85
2022/07/10 04:21:56;;;;;;;;;;;;;;;23.12;44.46;99080.09;4376312;32;33969;-88
2022/07/10 04:24:24;;;;;;;;;;;;;;;23.30;44.13;99087.28;4376095;32;35123;-85
2022/07/10 04:26:51;;;;;;;;;;;;;;;23.42;43.81;99087.72;4375779;32;34166;-87
2022/07/10 04:29:18;;;;;;;;;;;;;;;24.24;41.99;99078.03;4375939;32;34093;-88
2022/07/10 04:31:46;;;;;;;;;;;;;;;23.35;43.86;99083.59;4375434;32;34914;-84
2022/07/10 04:34:13;;;;;;;;;;;;;;;24.26;41.99;99077.06;4375830;32;34488;-88
2022/07/10 04:36:41;;;;;;;;;;;;;;;24.61;41.47;99076.41;4376307;32;34067;-88
2022/07/10 04:39:08;;;;;;;;;;;;;;;24.60;41.31;99082.66;4361658;32;33441;-87
2022/07/10 04:41:35;;;;;;;;;;;;;;;24.54;41.80;99072.34;4375610;32;34189;-86
2022/07/10 04:44:03;;;;;;;;;;;;;;;24.88;40.77;99071.63;4375583;32;34586;-87
2022/07/10 04:46:30;;;;;;;;;;;;;;;24.98;40.10;99073.78;4376203;32;34241;-87
2022/07/10 04:48:57;;;;;;;;;;;;;;;24.77;40.73;99074.78;4376056;32;33245;-86
2022/07/10 04:51:25;;;;;;;;;;;;;;;24.79;40.87;99072.06;4376115;32;33831;-87
2022/07/10 04:53:52;;;;;;;;;;;;;;;26.19;38.48;99064.25;4375143;32;34356;-87
2022/07/10 04:56:19;;;;;;;;;;;;;;;25.65;38.81;99067.00;4375941;32;34332;-88
2022/07/10 04:58:46;;;;;;;;;;;;;;;26.35;37.71;99061.63;4375885;32;34154;-88
2022/07/10 05:01:18;;;;;;;;;;;;;;;25.36;39.64;99056.97;4375742;32;34702;-88
2022/07/10 05:03:46;;;;;;;;;;;;;;;25.96;38.40;99062.78;4362251;32;33852;-88
2022/07/10 05:06:13;;;;;;;;;;;;;;;25.22;39.94;99063.78;4375565;32;34464;-87
2022/07/10 05:08:41;;;;;;;;;;;;;;;24.47;41.78;99071.75;4375594;32;33269;-88
2022/07/10 05:11:09;;;;;;;;;;;;;;;24.73;41.21;99068.75;4375666;32;33907;-87
2022/07/10 05:13:36;;;;;;;;;;;;;;;23.69;43.19;99076.00;4376012;32;34090;-88
2022/07/10 05:16:04;;;;;;;;;;;;;;;25.27;40.29;99071.56;4375615;32;33656;-87
2022/07/10 05:18:32;;;;;;;;;;;;;;;25.13;40.16;99072.22;4361994;32;34256;-85
2022/07/10 05:20:59;;;;;;;;;;;;;;;24.38;41.88;99077.44;4375506;32;35766;-87
2022/07/10 05:23:27;;;;;;;;;;;;;;;24.83;41.02;99058.59;4375493;32;35023;-87
2022/07/10 05:25:55;;;;;;;;;;;;;;;24.78;40.93;99070.34;4375490;32;35223;-87
2022/07/10 05:28:22;;;;;;;;;;;;;;;24.68;40.76;99065.47;4361480;32;31912;-87
2022/07/10 05:30:49;;;;;;;;;;;;;;;23.88;42.81;99070.78;4362171;32;34175;-86
2022/07/10 05:33:17;;;;;;;;;;;;;;;23.55;43.26;99057.16;4375160;32;33933;-86
2022/07/10 05:35:44;;;;;;;;;;;;;;;23.75;42.58;99059.88;4361637;32;34792;-86
2022/07/10 05:38:11;;;;;;;;;;;;;;;23.16;44.40;99070.25;4375458;32;34094;-86
2022/07/10 05:40:39;;;;;;;;;;;;;;;23.06;44.62;99069.75;4375031;32;34513;-86
2022/07/10 05:43:06;;;;;;;;;;;;;;;23.84;42.86;99055.13;4374929;32;34518;-87
2022/07/10 05:45:33;;;;;;;;;;;;;;;23.60;43.09;99056.97;4375245;32;35222;-87
2022/07/10 05:48:01;;;;;;;;;;;;;;;24.41;41.77;99056.13;4374580;32;33079;-86
2022/07/10 05:50:28;;;;;;;;;;;;;;;23.94;42.21;99048.47;4374875;32;34614;-84
2022/07/10 05:52:55;;;;;;;;;;;;;;;24.58;40.99;99050.91;4375140;32;34331;-87
2022/07/10 05:55:23;;;;;;;;;;;;;;;24.98;40.11;99049.03;4375110;32;34307;-85
2022/07/10 05:57:50;;;;;;;;;;;;;;;24.49;41.17;99046.91;4361486;32;33776;-87
2022/07/10 06:00:18;;;;;;;;;;;;;;;25.23;39.81;99049.63;4360893;32;34096;-85
2022/07/10 06:02:45;;;;;;;;;;;;;;;25.45;39.83;99046.72;4374526;32;34556;-87
2022/07/10 06:05:12;;;;;;;;;;;;;;;25.15;39.58;99053.56;4362409;32;34278;-86
2022/07/10 06:07:40;;;;;;;;;;;;;;;24.71;40.93;99059.16;4376250;32;33120;-86
2022/07/10 06:10:07;;;;;;;;;;;;;;;24.23;41.39;99063.94;4363285;32;34424;-87
2022/07/10 06:12:34;;;;;;;;;;;;;;;24.47;41.09;99056.72;4376755;32;34247;-87
2022/07/10 06:15:02;;;;;;;;;;;;;;;24.05;41.97;99048.87;4377066;32;34501;-81
2022/07/10 06:17:29;;;;;;;;;;;;;;;24.71;40.99;99046.78;4376809;32;33187;-88
2022/07/10 06:19:57;;;;;;;;;;;;;;;25.04;41.16;99051.41;4376116;32;33750;-86
2022/07/10 06:22:30;;;;;;;;;;;;;;;24.57;40.72;99045.69;4363214;32;33987;-87
2022/07/10 06:24:58;;;;;;;;;;;;;;;25.10;40.18;99050.28;4376916;32;34182;-88
2022/07/10 06:27:25;;;;;;;;;;;;;;;23.89;42.50;99053.97;4363367;32;33408;-86
2022/07/10 06:29:52;;;;;;;;;;;;;;;25.75;39.19;99053.22;4363288;32;34545;-84
2022/07/10 06:32:20;;;;;;;;;;;;;;;25.08;40.23;99054.75;4376535;32;34284;-87
2022/07/10 06:34:47;;;;;;;;;;;;;;;26.34;38.03;99057.25;4363410;32;33908;-86
2022/07/10 06:37:14;;;;;;;;;;;;;;;26.47;37.38;99063.66;4376130;32;32908;-85
2022/07/10 06:39:42;;;;;;;;;;;;;;;24.63;40.10;99059.53;4358545;32;35008;-85
2022/07/10 06:42:09;;;;;;;;;;;;;;;25.37;38.92;99050.72;4350222;32;33590;-86
2022/07/10 06:44:37;;;;;;;;;;;;;;;26.07;37.67;99049.81;4376315;32;34250;-84
2022/07/10 06:49:51;;;;;;;;;;;;;;;26.18;37.74;99049.25;4364762;32;35008;-87
2022/07/10 06:52:19;;;;;;;;;;;;;;;26.69;36.32;99050.06;4362259;32;34008;-87
2022/07/10 06:54:48;;;;;;;;;;;;;;;25.89;37.20;99045.47;4363029;32;34642;-88
2022/07/10 06:57:19;;;;;;;;;;;;;;;26.31;36.57;99044.97;4363330;32;33317;-84
2022/07/10 06:59:46;;;;;;;;;;;;;;;26.79;36.89;99047.75;4350613;32;34335;-86
2022/07/10 07:02:13;;;;;;;;;;;;;;;24.78;39.35;99055.31;4362296;32;35012;-85
2022/07/10 07:04:42;;;;;;;;;;;;;;;25.32;39.01;99044.78;4376240;32;34088;-84
2022/07/10 07:07:10;;;;;;;;;;;;;;;24.99;39.50;99046.31;4376713;32;33401;-85
2022/07/10 07:09:37;;;;;;;;;;;;;;;26.32;36.62;99048.50;4375962;32;33989;-86
2022/07/10 07:12:05;;;;;;;;;;;;;;;26.13;36.16;99049.47;4376131;32;34600;-86
2022/07/10 07:14:32;;;;;;;;;;;;;;;26.67;36.58;99051.97;4375981;32;34187;-87
2022/07/10 07:17:05;;;;;;;;;;;;;;;26.85;34.84;99042.06;4362515;32;34067;-85
2022/07/10 07:25:07;;;;;;;;;;;;;;;26.91;35.19;99036.44;4364654;32;34136;-87
2022/07/10 07:27:35;;;;;;;;;;;;;;;27.08;34.84;99041.63;4362202;32;33430;-83
2022/07/10 07:30:10;;;;;;;;;;;;;;;26.15;34.64;99047.59;4375904;32;34259;-88
2022/07/10 07:32:38;;;;;;;;;;;;;;;26.06;35.08;99049.88;4362616;32;34372;-85
2022/07/10 07:35:06;;;;;;;;;;;;;;;26.31;34.54;99047.66;4361867;32;35122;-86
2022/07/10 07:37:40;;;;;;;;;;;;;;;27.02;33.65;99049.13;4362482;32;33501;-86
2022/07/10 07:40:09;;;;;;;;;;;;;;;26.93;33.11;99037.19;4376168;32;34380;-85
2022/07/10 07:42:36;;;;;;;;;;;;;;;26.69;33.60;99058.03;4375937;32;35269;-87
2022/07/10 07:45:03;;;;;;;;;;;;;;;27.74;31.85;99048.53;4376262;32;34436;-86
2022/07/10 07:47:31;;;;;;;;;;;;;;;26.80;33.62;99045.00;4362609;32;33143;-86
2022/07/10 07:50:02;;;;;;;;;;;;;;;26.15;34.35;99047.59;4362517;32;34080;-86
2022/07/10 07:52:31;;;;;;;;;;;;;;;26.89;33.77;99054.25;4376004;32;33945;-87
2022/07/10 07:54:58;;;;;;;;;;;;;;;26.58;34.17;99053.28;4376268;32;34413;-87
2022/07/10 07:57:25;;;;;;;;;;;;;;;27.00;33.60;99051.84;4362549;32;32837;-88
2022/07/10 07:59:53;;;;;;;;;;;;;;;27.48;32.71;99050.03;4375963;32;34715;-85
2022/07/10 08:02:21;;;;;;;;;;;;;;;27.74;32.22;99044.97;4375768;32;34246;-87
2022/07/10 08:04:49;;;;;;;;;;;;;;;27.83;31.34;99052.44;4361946;32;33523;-93
2022/07/10 08:07:16;;;;;;;;;;;;;;;26.93;31.89;99047.81;4365678;32;33332;-85
2022/07/10 08:09:44;;;;;;;;;;;;;;;26.47;32.68;99050.38;4375724;32;33956;-84
2022/07/10 08:12:11;;;;;;;;;;;;;;;27.35;32.03;99041.03;4361634;32;34041;-82
2022/07/10 08:14:39;;;;;;;;;;;;;;;26.50;33.01;99049.34;4375489;32;33916;-90
2022/07/10 08:17:06;;;;;;;;;;;;;;;26.46;32.92;99048.66;4376055;32;32408;-86
2022/07/10 08:19:33;;;;;;;;;;;;;;;26.49;31.99;99053.81;4376226;32;34386;-84
2022/07/10 08:22:01;;;;;;;;;;;;;;;27.16;30.27;99041.22;4376272;32;34530;-86
2022/07/10 08:24:28;;;;;;;;;;;;;;;27.28;30.67;99037.88;4375931;32;34127;-87
2022/07/10 08:26:55;;;;;;;;;;;;;;;27.11;30.48;99051.28;4375839;32;33198;-84
2022/07/10 08:29:24;;;;;;;;;;;;;;;27.33;29.48;99033.13;4374914;32;34083;-84
2022/07/10 08:31:51;;;;;;;;;;;;;;;26.36;30.98;99042.94;4375783;32;34300;-85
2022/07/10 08:34:19;;;;;;;;;;;;;;;27.24;31.40;99032.78;4375966;32;34644;-84
2022/07/10 08:36:46;;;;;;;;;;;;;;;27.23;31.93;99028.44;4368210;32;32785;-86
2022/07/10 08:39:20;;;;;;;;;;;;;;;28.22;29.21;99037.62;4360943;32;32552;-86
2022/07/10 08:41:51;;;;;;;;;;;;;;;27.76;30.03;99035.97;4375971;32;35135;-83
2022/07/10 08:44:18;;;;;;;;;;;;;;;27.68;30.23;99026.69;4362673;32;33862;-84
2022/07/10 08:46:46;;;;;;;;;;;;;;;27.65;30.24;99017.94;4375996;32;33691;-84
2022/07/10 08:49:14;;;;;;;;;;;;;;;28.30;28.93;99035.38;4375936;32;33434;-85
2022/07/10 08:51:47;;;;;;;;;;;;;;;27.46;29.81;99017.28;4347536;32;34545;-86
2022/07/10 08:54:15;;;;;;;;;;;;;;;27.38;29.55;99015.09;4362127;32;34025;-85
2022/07/10 08:56:48;;;;;;;;;;;;;;;26.78;30.92;99030.06;4362524;32;34021;-92
2022/07/10 08:59:15;;;;;;;;;;;;;;;26.94;29.61;99028.28;4362375;32;34292;-85
2022/07/10 09:01:43;;;;;;;;;;;;;;;27.44;30.14;99035.19;4362215;32;34045;-85
2022/07/10 09:04:17;;;;;;;;;;;;;;;27.06;29.07;99024.06;4362176;32;34946;-85
2022/07/10 09:06:45;;;;;;;;;;;;;;;27.54;29.30;99016.84;4361955;32;33102;-85
2022/07/10 09:09:12;;;;;;;;;;;;;;;27.58;27.45;99021.91;4375500;32;33972;-83
2022/07/10 09:11:42;;;;;;;;;;;;;;;26.83;29.08;99028.03;4387464;32;33002;-88
2022/07/10 09:14:14;;;;;;;;;;;;;;;27.82;26.99;99008.97;4376903;32;34287;-87
2022/07/10 09:16:59;;;;;;;;;;;;;;;26.95;27.38;99018.50;4379277;32;34297;-86
2022/07/10 09:19:27;;;;;;;;;;;;;;;27.44;27.68;99029.00;4365072;32;34854;-84
2022/07/10 09:21:59;;;;;;;;;;;;;;;27.49;28.66;99025.09;4361947;32;34344;-84
2022/07/10 09:24:29;;;;;;;;;;;;;;;27.92;29.10;99013.72;4350640;32;33838;-87
2022/07/10 09:26:56;;;;;;;;;;;;;;;28.48;27.90;99012.91;4361738;32;33264;-83
2022/07/10 09:29:24;;;;;;;;;;;;;;;28.29;28.00;99029.16;4374953;32;34337;-84
2022/07/10 09:31:52;;;;;;;;;;;;;;;27.74;27.45;99023.66;4361772;32;35147;-85
2022/07/10 09:34:39;;;;;;;;;;;;;;;28.23;27.81;99020.72;4361925;32;34088;-86
2022/07/10 09:37:28;;;;;;;;;;;;;;;28.80;26.74;99018.84;4362048;32;33207;-84
2022/07/10 09:40:03;;;;;;;;;;;;;;;28.34;27.34;99019.09;4362403;32;34020;-86
2022/07/10 09:42:32;;;;;;;;;;;;;;;28.52;26.55;99011.75;4376896;32;35026;-86
2022/07/10 09:45:16;;;;;;;;;;;;;;;27.63;29.17;99018.97;4362709;32;34821;-85
2022/07/10 09:47:45;;;;;;;;;;;;;;;27.55;30.43;99027.41;4377095;32;34015;-87
2022/07/10 09:50:24;;;;;;;;;;;;;;;27.05;30.50;99022.31;4360904;32;34015;-84
2022/07/10 09:52:53;;;;;;;;;;;;;;;27.54;29.45;99030.16;4375069;32;34229;-85
2022/07/10 09:55:21;;;;;;;;;;;;;;;27.95;29.27;99026.84;4370975;32;35084;-86
2022/07/10 09:57:53;;;;;;;;;;;;;;;27.77;28.83;99011.06;4336286;32;31761;-86
2022/07/10 10:00:27;;;;;;;;;;;;;;;27.25;29.37;99007.91;4362006;32;33934;-85
2022/07/10 10:02:55;;;;;;;;;;;;;;;27.90;28.72;99013.81;4349038;32;35402;-85
2022/07/10 10:05:39;;;;;;;;;;;;;;;27.80;28.45;99008.19;4361759;32;35187;-86
2022/07/10 10:08:11;;;;;;;;;;;;;;;28.98;27.45;98998.16;4362126;32;33511;-86
2022/07/10 10:10:47;;;;;;;;;;;;;;;28.37;27.90;98994.06;4361918;32;34914;-84
2022/07/10 10:13:15;;;;;;;;;;;;;;;28.19;28.11;99000.53;4348063;32;35419;-84
2022/07/10 10:15:43;;;;;;;;;;;;;;;28.46;29.16;98993.50;4347157;32;35135;-85
2022/07/10 10:18:10;;;;;;;;;;;;;;;28.20;27.45;98986.25;4348555;32;33605;-84
2022/07/10 10:20:38;;;;;;;;;;;;;;;28.51;27.42;98980.72;4348455;32;35123;-85
2022/07/10 10:23:05;;;;;;;;;;;;;;;28.56;26.84;98973.28;4348064;32;34306;-87
2022/07/10 10:25:33;;;;;;;;;;;;;;;28.58;26.36;98974.03;4348571;32;34219;-86
2022/07/10 10:28:01;;;;;;;;;;;;;;;28.31;26.02;98970.44;4348301;32;34358;-86
2022/07/10 10:30:28;;;;;;;;;;;;;;;28.03;25.63;98971.28;4361566;32;34129;-85
2022/07/10 10:32:56;;;;;;;;;;;;;;;28.22;26.36;98968.31;4348247;32;35225;-86
2022/07/10 10:35:59;;;;;;;;;;;;;;;29.11;25.56;98955.50;4361152;32;34926;-84
2022/07/10 10:38:44;;;;;;;;;;;;;;;27.61;26.57;98975.59;4315249;33;32420;-87
2022/07/10 10:41:24;;;;;;;;;;;;;;;27.64;26.18;98978.94;4364598;32;34588;-85
2022/07/10 10:44:07;;;;;;;;;;;;;;;28.60;25.93;98953.47;4348352;32;34312;-84
2022/07/10 10:46:35;;;;;;;;;;;;;;;27.91;26.32;98978.22;4357508;32;34852;-85
2022/07/10 10:49:06;;;;;;;;;;;;;;;28.95;24.89;98965.44;4334849;32;32109;-87
2022/07/10 10:51:52;;;;;;;;;;;;;;;28.17;26.58;98954.44;4340600;32;34743;-85
2022/07/10 10:54:20;;;;;;;;;;;;;;;28.56;26.87;98962.63;4361162;32;34901;-85
2022/07/10 10:57:07;;;;;;;;;;;;;;;27.72;29.22;98966.94;4361058;32;35339;-84
2022/07/10 10:59:43;;;;;;;;;;;;;;;29.01;26.59;98973.91;4366408;32;33499;-88
2022/07/10 11:02:20;;;;;;;;;;;;;;;28.46;27.51;98965.97;4376336;32;34365;-90
2022/07/10 11:04:48;;;;;;;;;;;;;;;27.75;28.47;98970.31;4376330;32;34371;-86
2022/07/10 11:07:34;;;;;;;;;;;;;;;27.77;26.42;98964.87;4376548;32;35004;-85
2022/07/10 11:10:20;;;;;;;;;;;;;;;28.07;26.66;98955.03;4360860;32;32735;-85
2022/07/10 11:13:00;;;;;;;;;;;;;;;28.18;27.59;98958.81;4361038;32;33526;-87
2022/07/10 11:15:32;;;;;;;;;;;;;;;28.86;24.69;98948.22;4359735;32;34231;-86
2022/07/10 11:18:04;;;;;;;;;;;;;;;28.43;25.11;98943.00;4359628;32;33633;-84
2022/07/10 11:20:33;;;;;;;;;;;;;;;28.21;25.56;98945.28;4359549;32;33212;-85
2022/07/10 11:23:19;;;;;;;;;;;;;;;28.41;25.04;98952.91;4366941;32;34149;-84
2022/07/10 11:26:09;;;;;;;;;;;;;;;28.33;26.03;98945.38;4376261;32;34300;-78
2022/07/10 11:28:43;;;;;;;;;;;;;;;28.68;25.88;98970.75;4346341;33;34583;-84
2022/07/10 11:31:10;;;;;;;;;;;;;;;27.83;27.85;98988.50;4346528;33;33307;-83
2022/07/10 11:33:44;;;;;;;;;;;;;;;26.58;29.17;98991.28;4358949;32;34139;-85
2022/07/10 11:36:13;;;;;;;;;;;;;;;27.04;28.62;98986.87;4361989;32;35249;-85
2022/07/10 11:38:42;;;;;;;;;;;;;;;26.43;28.28;98992.97;4364714;32;34943;-84
2022/07/10 11:41:19;;;;;;;;;;;;;;;26.10;29.02;98985.00;4376286;32;33625;-85
2022/07/10 11:43:50;;;;;;;;;;;;;;;26.68;29.05;98993.34;4371232;32;34400;-85
2022/07/10 11:46:18;;;;;;;;;;;;;;;26.47;28.69;98985.72;4368542;32;34181;-88
2022/07/10 11:48:45;;;;;;;;;;;;;;;26.06;30.26;98999.41;4362235;32;34120;-85
2022/07/10 11:51:32;;;;;;;;;;;;;;;26.25;29.94;98985.97;4376744;32;33208;-82
2022/07/10 11:54:08;;;;;;;;;;;;;;;26.42;30.30;98980.63;4390500;32;34237;-82
2022/07/10 11:56:36;;;;;;;;;;;;;;;26.24;31.29;98994.91;4367199;32;34537;-84
2022/07/10 11:59:04;;;;;;;;;;;;;;;25.61;32.51;98982.25;4390446;32;34289;-83
2022/07/10 12:01:33;;;;;;;;;;;;;;;25.83;32.23;98987.34;4390893;32;34237;-84
2022/07/10 12:04:04;;;;;;;;;;;;;;;25.23;32.59;98980.63;4377331;32;33898;-84
2022/07/10 12:06:33;;;;;;;;;;;;;;;25.08;32.38;98975.16;4390979;32;34236;-85
2022/07/10 12:09:04;;;;;;;;;;;;;;;25.66;31.69;98980.22;4377206;32;34030;-84
2022/07/10 12:11:31;;;;;;;;;;;;;;;25.52;32.55;98964.16;4391358;32;34554;-85
2022/07/10 12:14:18;;;;;;;;;;;;;;;26.73;30.54;98965.63;4375978;32;34269;-85
2022/07/10 12:16:46;;;;;;;;;;;;;;;26.59;29.95;98969.06;4376058;32;34045;-85
2022/07/10 12:19:15;;;;;;;;;;;;;;;27.10;28.81;98957.25;4376048;32;34973;-84
2022/07/10 12:21:43;;;;;;;;;;;;;;;27.42;26.86;98958.03;4362175;32;34384;-85
2022/07/10 12:24:11;;;;;;;;;;;;;;;27.78;25.09;98962.16;4362364;32;33764;-84
2022/07/10 12:26:39;;;;;;;;;;;;;;;27.79;25.50;98961.19;4362181;32;35320;-82
2022/07/10 12:29:19;;;;;;;;;;;;;;;27.31;25.74;98962.28;4375749;32;33970;-85
2022/07/10 12:31:49;;;;;;;;;;;;;;;27.29;26.72;98959.72;4375852;32;33278;-77
2022/07/10 12:34:16;;;;;;;;;;;;;;;26.97;26.94;98966.88;4360929;32;33848;-84
2022/07/10 12:36:45;;;;;;;;;;;;;;;26.71;28.02;98970.19;4347349;32;35335;-84
2022/07/10 12:39:19;;;;;;;;;;;;;;;26.17;28.70;98981.94;4360662;32;33972;-85
2022/07/10 12:42:14;;;;;;;;;;;;;;;26.87;27.52;98981.69;4360517;32;32206;-85
2022/07/10 12:44:43;;;;;;;;;;;;;;;26.73;28.42;98973.63;4371288;32;34926;-85
2022/07/10 12:47:13;;;;;;;;;;;;;;;26.80;28.91;98980.31;4388208;32;35220;-85
2022/07/10 12:49:51;;;;;;;;;;;;;;;27.56;27.61;98994.50;4373040;32;35109;-87
2022/07/10 12:52:27;;;;;;;;;;;;;;;26.31;30.39;98996.28;4375442;32;33125;-84
2022/07/10 12:55:18;;;;;;;;;;;;;;;25.94;31.36;98992.94;4373730;32;34492;-88
2022/07/10 12:57:46;;;;;;;;;;;;;;;26.69;28.28;98988.88;4361115;32;34142;-86
2022/07/10 13:00:14;;;;;;;;;;;;;;;26.62;28.64;98987.50;4362104;32;32845;-86
2022/07/10 13:02:41;;;;;;;;;;;;;;;25.51;30.35;98999.59;4358776;32;31814;-86
2022/07/10 13:05:09;;;;;;;;;;;;;;;25.86;29.65;98989.84;4365824;32;34310;-88
2022/07/10 13:07:36;;;;;;;;;;;;;;;26.90;28.44;98992.16;4375533;32;35120;-87
2022/07/10 13:10:07;;;;;;;;;;;;;;;26.71;28.56;98994.09;4362253;32;34070;-89
2022/07/10 13:12:34;;;;;;;;;;;;;;;27.57;27.70;98995.34;4375519;32;34312;-87